Time,TemperatureF,DewpointF,PressureIn,WindDirection,WindDirectionDegrees,WindSpeedMPH,WindSpeedGustMPH,Humidity,HourlyPrecipIn,Conditions,Clouds,dailyrainin,SolarRadiationWatts/m^2,SoftwareType,DateUTC
2013-09-19 00:00:00,57.0,55.6,29.94,South,180,2.9,4.9,95,0.00,,,0.00,0.00,VWS V14.01,2013-09-19 07:00:00,
2013-09-19 00:04:00,56.8,55.7,29.94,SSW,202,4.0,4.7,96,0.00,,,0.00,0.00,VWS V14.01,2013-09-19 07:04:00,
2013-09-19 00:09:00,56.7,55.5,29.94,South,180,1.6,5.4,96,0.00,,,0.00,0.00,VWS V14.01,2013-09-19 07:09:00,
2013-09-19 00:14:00,56.8,56.0,29.94,South,180,8.7,8.7,97,0.00,,,0.00,0.00,VWS V14.01,2013-09-19 07:14:00,
2013-09-19 00:15:00,56.8,56.0,29.94,SSE,158,4.7,8.7,97,0.00,,,0.00,0.00,VWS V14.01,2013-09-19 07:15:00,
2013-09-19 00:19:00,57.4,56.0,29.94,South,180,2.5,9.2,95,0.00,,,0.00,0.00,VWS V14.01,2013-09-19 07:19:00,
2013-09-19 00:24:00,57.6,55.6,29.94,SSW,202,2.7,9.2,93,0.00,,,0.00,0.00,VWS V14.01,2013-09-19 07:24:00,
2013-09-19 00:29:00,57.6,55.0,29.94,SSW,202,3.6,9.2,91,0.00,,,0.00,0.00,VWS V14.01,2013-09-19 07:29:00,
2013-09-19 00:30:00,57.6,55.0,29.94,SW,225,2.7,9.2,91,0.00,,,0.00,0.00,VWS V14.01,2013-09-19 07:30:00,
2013-09-19 00:34:00,57.7,54.8,29.94,SSW,202,3.6,3.8,90,0.00,,,0.00,0.00,VWS V14.01,2013-09-19 07:34:00,
2013-09-19 00:39:00,57.7,54.2,29.94,SSW,202,2.7,3.8,88,0.00,,,0.00,0.00,VWS V14.01,2013-09-19 07:39:00,
2013-09-19 00:44:00,57.9,54.4,29.94,SSW,202,1.6,3.8,88,0.00,,,0.00,0.00,VWS V14.01,2013-09-19 07:44:00,
2013-09-19 00:45:00,57.9,54.4,29.94,SSW,202,2.7,3.8,88,0.00,,,0.00,0.00,VWS V14.01,2013-09-19 07:45:00,
2013-09-19 00:49:00,57.9,54.7,29.94,South,180,2.5,3.8,89,0.00,,,0.00,0.00,VWS V14.01,2013-09-19 07:49:00,
2013-09-19 00:54:00,57.9,54.7,29.94,South,180,2.5,3.8,89,0.00,,,0.00,0.00,VWS V14.01,2013-09-19 07:54:00,
2013-09-19 00:59:00,57.9,55.0,29.94,SSW,202,3.1,4.3,90,0.00,,,0.00,0.00,VWS V14.01,2013-09-19 07:59:00,
2013-09-19 01:00:00,57.9,55.0,29.94,SSW,202,3.4,4.3,90,0.00,,,0.00,0.00,VWS V14.01,2013-09-19 08:00:00,
2013-09-19 01:04:00,57.7,54.8,29.94,South,180,2.7,3.6,90,0.00,,,0.00,0.00,VWS V14.01,2013-09-19 08:04:00,
2013-09-19 01:09:00,57.6,54.7,29.94,South,180,0.0,3.6,90,0.00,,,0.00,0.00,VWS V14.01,2013-09-19 08:09:00,
2013-09-19 01:14:00,57.2,54.3,29.91,South,180,0.0,3.6,90,0.00,,,0.00,0.00,VWS V14.01,2013-09-19 08:14:00,
2013-09-19 01:15:00,57.2,54.3,29.91,South,180,0.0,3.6,90,0.00,,,0.00,0.00,VWS V14.01,2013-09-19 08:15:00,
2013-09-19 01:19:00,56.8,54.2,29.91,South,180,0.0,0.0,91,0.00,,,0.00,0.00,VWS V14.01,2013-09-19 08:19:00,
2013-09-19 01:24:00,56.7,54.1,29.91,South,180,0.0,0.0,91,0.00,,,0.00,0.00,VWS V14.01,2013-09-19 08:24:00,
2013-09-19 01:29:00,56.3,54.0,29.91,South,180,0.0,0.0,92,0.00,,,0.00,0.00,VWS V14.01,2013-09-19 08:29:00,
2013-09-19 01:30:00,56.3,54.0,29.91,South,180,0.0,0.0,92,0.00,,,0.00,0.00,VWS V14.01,2013-09-19 08:30:00,
2013-09-19 01:34:00,56.3,54.0,29.91,South,180,0.0,0.0,92,0.00,,,0.00,0.00,VWS V14.01,2013-09-19 08:34:00,
2013-09-19 01:40:00,56.1,53.8,29.91,South,180,0.0,0.0,92,0.00,,,0.00,0.00,VWS V14.01,2013-09-19 08:40:00,
2013-09-19 01:45:00,56.5,55.1,29.91,South,180,5.4,5.4,95,0.00,,,0.00,0.00,VWS V14.01,2013-09-19 08:45:00,
2013-09-19 01:50:00,56.8,55.7,29.91,SSW,202,5.4,9.2,96,0.00,,,0.00,0.00,VWS V14.01,2013-09-19 08:50:00,
2013-09-19 01:55:00,57.0,55.9,29.91,SSE,158,3.4,9.2,96,0.00,,,0.00,0.00,VWS V14.01,2013-09-19 08:55:00,
2013-09-19 02:00:00,56.8,56.0,29.91,South,180,7.8,9.6,97,0.00,,,0.00,0.00,VWS V14.01,2013-09-19 09:00:00,
2013-09-19 02:05:00,56.7,55.8,29.91,SSE,158,4.9,9.6,97,0.00,,,0.00,0.00,VWS V14.01,2013-09-19 09:05:00,
2013-09-19 02:10:00,56.7,56.1,29.91,South,180,8.1,9.6,98,0.00,,,0.00,0.00,VWS V14.01,2013-09-19 09:10:00,
2013-09-19 02:15:00,56.7,56.7,29.91,SW,225,7.2,14.3,100,0.00,,,0.00,0.00,VWS V14.01,2013-09-19 09:15:00,
2013-09-19 02:20:00,56.8,56.6,29.91,SSW,202,3.1,14.3,99,0.00,,,0.00,0.00,VWS V14.01,2013-09-19 09:20:00,
2013-09-19 02:25:00,56.8,56.6,29.91,South,180,4.9,14.3,99,0.00,,,0.00,0.00,VWS V14.01,2013-09-19 09:25:00,
2013-09-19 02:30:00,56.8,56.6,29.91,South,180,2.0,2.0,99,0.00,,,0.00,0.00,VWS V14.01,2013-09-19 09:30:00,
2013-09-19 02:35:00,56.8,56.6,29.91,South,180,2.5,4.7,99,0.00,,,0.00,0.00,VWS V14.01,2013-09-19 09:35:00,
2013-09-19 02:40:00,56.8,56.3,29.91,SSE,158,0.0,5.8,98,0.00,,,0.00,0.00,VWS V14.01,2013-09-19 09:40:00,
2013-09-19 02:45:00,56.7,56.1,29.91,SSE,158,1.3,5.8,98,0.00,,,0.00,0.00,VWS V14.01,2013-09-19 09:45:00,
2013-09-19 02:46:00,56.7,56.1,29.91,SSE,158,2.2,2.7,98,0.00,,,0.00,0.00,VWS V14.01,2013-09-19 09:46:00,
2013-09-19 02:51:00,56.5,55.9,29.91,South,180,2.5,6.5,98,0.00,,,0.00,0.00,VWS V14.01,2013-09-19 09:51:00,
2013-09-19 02:56:00,56.5,56.2,29.91,SSW,202,3.1,6.5,99,0.00,,,0.00,0.00,VWS V14.01,2013-09-19 09:56:00,
2013-09-19 03:00:00,56.5,56.2,29.91,SSW,202,2.0,6.5,99,0.00,,,0.00,0.00,VWS V14.01,2013-09-19 10:00:00,
2013-09-19 03:01:00,56.5,56.2,29.91,SSW,202,3.1,3.1,99,0.00,,,0.00,0.00,VWS V14.01,2013-09-19 10:01:00,
2013-09-19 03:06:00,56.3,56.0,29.91,South,180,0.0,3.1,99,0.00,,,0.00,0.00,VWS V14.01,2013-09-19 10:06:00,
2013-09-19 03:11:00,55.9,55.7,29.91,SSE,158,0.0,3.1,99,0.00,,,0.00,0.00,VWS V14.01,2013-09-19 10:11:00,
2013-09-19 03:15:00,55.9,55.7,29.91,SSE,158,0.0,3.1,99,0.00,,,0.00,0.00,VWS V14.01,2013-09-19 10:15:00,
2013-09-19 03:17:00,55.8,55.5,29.91,SSE,158,0.0,0.0,99,0.00,,,0.00,0.00,VWS V14.01,2013-09-19 10:17:00,
2013-09-19 03:22:00,55.6,55.3,29.91,SSE,158,0.0,0.0,99,0.00,,,0.00,0.00,VWS V14.01,2013-09-19 10:22:00,
2013-09-19 03:27:00,55.2,55.2,29.91,SSE,158,0.0,0.0,100,0.00,,,0.00,0.00,VWS V14.01,2013-09-19 10:27:00,
2013-09-19 03:30:00,55.2,55.2,29.91,SSE,158,0.0,0.0,100,0.00,,,0.00,0.00,VWS V14.01,2013-09-19 10:30:00,
2013-09-19 03:32:00,55.0,55.0,29.91,SSE,158,0.0,0.0,100,0.00,,,0.00,0.00,VWS V14.01,2013-09-19 10:32:00,
2013-09-19 03:37:00,55.0,55.0,29.91,SSW,202,0.0,3.6,100,0.00,,,0.00,0.00,VWS V14.01,2013-09-19 10:37:00,
2013-09-19 03:42:00,54.9,54.9,29.91,South,180,0.0,3.6,100,0.00,,,0.00,0.00,VWS V14.01,2013-09-19 10:42:00,
2013-09-19 03:45:00,54.7,54.7,29.91,SSW,202,0.0,3.6,100,0.00,,,0.00,0.00,VWS V14.01,2013-09-19 10:45:00,
2013-09-19 03:47:00,54.7,54.7,29.91,South,180,0.0,0.0,100,0.00,,,0.00,0.00,VWS V14.01,2013-09-19 10:47:00,
2013-09-19 03:52:00,54.5,54.5,29.91,South,180,0.0,0.0,100,0.00,,,0.00,0.00,VWS V14.01,2013-09-19 10:52:00,
2013-09-19 03:57:00,54.3,54.3,29.91,South,180,0.0,0.0,100,0.00,,,0.00,0.00,VWS V14.01,2013-09-19 10:57:00,
2013-09-19 04:00:00,54.3,54.3,29.88,South,180,0.0,0.0,100,0.00,,,0.00,0.00,VWS V14.01,2013-09-19 11:00:00,
2013-09-19 04:02:00,54.3,54.3,29.88,South,180,0.0,0.0,100,0.00,,,0.00,0.00,VWS V14.01,2013-09-19 11:02:00,
2013-09-19 04:07:00,54.3,54.3,29.88,South,180,0.0,0.0,100,0.00,,,0.00,0.00,VWS V14.01,2013-09-19 11:07:00,
2013-09-19 04:12:00,54.3,54.3,29.88,South,180,0.0,0.0,100,0.00,,,0.00,0.00,VWS V14.01,2013-09-19 11:12:00,
2013-09-19 04:15:00,54.3,54.3,29.91,South,180,0.0,0.0,100,0.00,,,0.00,0.00,VWS V14.01,2013-09-19 11:15:00,
2013-09-19 04:17:00,54.3,54.3,29.91,SSW,202,0.0,0.0,100,0.00,,,0.00,0.00,VWS V14.01,2013-09-19 11:17:00,
2013-09-19 04:22:00,54.5,54.5,29.91,SSW,202,0.0,0.0,100,0.00,,,0.00,0.00,VWS V14.01,2013-09-19 11:22:00,
2013-09-19 04:27:00,54.7,54.7,29.91,SSW,202,0.0,0.0,100,0.00,,,0.00,0.00,VWS V14.01,2013-09-19 11:27:00,
2013-09-19 04:30:00,54.7,54.7,29.91,SSW,202,0.0,0.0,100,0.00,,,0.00,0.00,VWS V14.01,2013-09-19 11:30:00,
2013-09-19 04:32:00,54.7,54.7,29.91,South,180,0.0,0.0,100,0.00,,,0.00,0.00,VWS V14.01,2013-09-19 11:32:00,
2013-09-19 04:37:00,54.7,54.4,29.91,South,180,0.0,0.0,99,0.00,,,0.00,0.00,VWS V14.01,2013-09-19 11:37:00,
2013-09-19 04:42:00,54.5,54.2,29.91,South,180,0.0,0.0,99,0.00,,,0.00,0.00,VWS V14.01,2013-09-19 11:42:00,
2013-09-19 04:45:00,54.7,54.4,29.88,South,180,0.0,0.0,99,0.00,,,0.00,0.00,VWS V14.01,2013-09-19 11:45:00,
2013-09-19 04:47:00,54.9,54.9,29.88,South,180,2.0,2.7,100,0.00,,,0.00,0.00,VWS V14.01,2013-09-19 11:47:00,
2013-09-19 04:52:00,54.9,54.9,29.88,SSW,202,0.0,2.9,100,0.00,,,0.00,0.00,VWS V14.01,2013-09-19 11:52:00,
2013-09-19 04:57:00,54.5,54.2,29.88,SSW,202,0.0,2.9,99,0.00,,,0.00,0.00,VWS V14.01,2013-09-19 11:57:00,
2013-09-19 05:00:00,54.5,54.2,29.88,SSW,202,0.0,2.9,99,0.00,,,0.00,0.00,VWS V14.01,2013-09-19 12:00:00,
2013-09-19 05:02:00,54.3,54.0,29.88,SSW,202,0.0,0.0,99,0.00,,,0.00,0.00,VWS V14.01,2013-09-19 12:02:00,
2013-09-19 05:07:00,54.3,54.0,29.88,SSW,202,0.0,0.0,99,0.00,,,0.00,0.00,VWS V14.01,2013-09-19 12:07:00,
2013-09-19 05:12:00,54.0,53.7,29.88,South,180,0.0,0.0,99,0.00,,,0.00,0.00,VWS V14.01,2013-09-19 12:12:00,
2013-09-19 05:15:00,54.0,53.7,29.88,South,180,0.0,0.0,99,0.00,,,0.00,0.00,VWS V14.01,2013-09-19 12:15:00,
2013-09-19 05:17:00,54.0,54.0,29.88,South,180,0.0,0.0,100,0.00,,,0.00,0.00,VWS V14.01,2013-09-19 12:17:00,
2013-09-19 05:22:00,54.0,54.0,29.88,South,180,0.0,0.0,100,0.00,,,0.00,0.00,VWS V14.01,2013-09-19 12:22:00,
2013-09-19 05:27:00,54.0,54.0,29.88,South,180,0.0,0.0,100,0.00,,,0.00,0.00,VWS V14.01,2013-09-19 12:27:00,
2013-09-19 05:30:00,54.0,54.0,29.88,South,180,0.0,0.0,100,0.00,,,0.00,0.00,VWS V14.01,2013-09-19 12:30:00,
2013-09-19 05:32:00,54.0,54.0,29.88,South,180,0.0,0.0,100,0.00,,,0.00,0.00,VWS V14.01,2013-09-19 12:32:00,
2013-09-19 05:37:00,54.0,54.0,29.88,South,180,0.0,0.0,100,0.00,,,0.00,0.00,VWS V14.01,2013-09-19 12:37:00,
2013-09-19 05:42:00,53.8,53.8,29.88,South,180,0.0,0.0,100,0.00,,,0.00,0.00,VWS V14.01,2013-09-19 12:42:00,
2013-09-19 05:45:00,53.8,53.8,29.91,South,180,0.0,0.0,100,0.00,,,0.00,0.00,VWS V14.01,2013-09-19 12:45:00,
2013-09-19 05:47:00,53.6,53.6,29.91,South,180,0.0,0.0,100,0.00,,,0.00,0.00,VWS V14.01,2013-09-19 12:47:00,
2013-09-19 05:52:00,53.4,53.4,29.91,South,180,0.0,0.0,100,0.00,,,0.00,0.00,VWS V14.01,2013-09-19 12:52:00,
2013-09-19 05:57:00,53.4,53.4,29.91,South,180,0.0,0.0,100,0.00,,,0.00,0.00,VWS V14.01,2013-09-19 12:57:00,
2013-09-19 06:00:00,53.4,53.4,29.88,South,180,0.0,0.0,100,0.00,,,0.00,0.00,VWS V14.01,2013-09-19 13:00:00,
2013-09-19 06:03:00,53.2,53.2,29.88,South,180,0.0,0.0,100,0.00,,,0.00,0.00,VWS V14.01,2013-09-19 13:03:00,
2013-09-19 06:08:00,53.4,53.4,29.88,South,180,0.0,0.0,100,0.00,,,0.00,0.00,VWS V14.01,2013-09-19 13:08:00,
2013-09-19 06:13:00,53.4,53.4,29.88,South,180,0.0,0.0,100,0.00,,,0.00,0.00,VWS V14.01,2013-09-19 13:13:00,
2013-09-19 06:15:00,53.4,53.4,29.88,South,180,0.0,0.0,100,0.00,,,0.00,0.00,VWS V14.01,2013-09-19 13:15:00,
2013-09-19 06:18:00,53.6,53.6,29.88,South,180,0.0,0.0,100,0.00,,,0.00,0.00,VWS V14.01,2013-09-19 13:18:00,
2013-09-19 06:23:00,53.6,53.6,29.88,South,180,0.0,0.0,100,0.00,,,0.00,0.00,VWS V14.01,2013-09-19 13:23:00,
2013-09-19 06:28:00,53.6,53.6,29.88,South,180,0.0,0.0,100,0.00,,,0.00,0.00,VWS V14.01,2013-09-19 13:28:00,
2013-09-19 06:30:00,53.6,53.6,29.91,South,180,0.0,0.0,100,0.00,,,0.00,0.00,VWS V14.01,2013-09-19 13:30:00,
2013-09-19 06:33:00,53.8,53.8,29.91,South,180,0.0,0.0,100,0.00,,,0.00,0.00,VWS V14.01,2013-09-19 13:33:00,
2013-09-19 06:38:00,53.8,53.8,29.91,South,180,0.0,0.0,100,0.00,,,0.00,0.00,VWS V14.01,2013-09-19 13:38:00,
2013-09-19 06:43:00,53.6,53.6,29.91,South,180,0.0,0.0,100,0.00,,,0.00,0.00,VWS V14.01,2013-09-19 13:43:00,
2013-09-19 06:45:00,53.6,53.6,29.91,South,180,0.0,0.0,100,0.00,,,0.00,0.00,VWS V14.01,2013-09-19 13:45:00,
2013-09-19 06:48:00,53.6,53.6,29.91,South,180,0.0,0.0,100,0.00,,,0.00,0.00,VWS V14.01,2013-09-19 13:48:00,
2013-09-19 06:54:00,53.6,53.6,29.91,South,180,0.0,0.0,100,0.00,,,0.00,0.00,VWS V14.01,2013-09-19 13:54:00,
2013-09-19 06:59:00,53.8,53.8,29.88,South,180,0.0,0.0,100,0.00,,,0.00,0.00,VWS V14.01,2013-09-19 13:59:00,
2013-09-19 07:00:00,53.8,53.8,29.88,South,180,0.0,0.0,100,0.00,,,0.00,0.00,VWS V14.01,2013-09-19 14:00:00,
2013-09-19 07:04:00,53.8,53.8,29.88,South,180,0.0,0.0,100,0.00,,,0.00,0.00,VWS V14.01,2013-09-19 14:04:00,
2013-09-19 07:09:00,53.6,53.6,29.88,South,180,0.0,0.0,100,0.00,,,0.00,0.00,VWS V14.01,2013-09-19 14:09:00,
2013-09-19 07:14:00,53.6,53.6,29.88,South,180,0.0,0.0,100,0.00,,,0.00,0.00,VWS V14.01,2013-09-19 14:14:00,
2013-09-19 07:15:00,53.6,53.6,29.88,South,180,0.0,0.0,100,0.00,,,0.00,0.00,VWS V14.01,2013-09-19 14:15:00,
2013-09-19 07:19:00,53.8,53.8,29.88,South,180,0.0,0.0,100,0.00,,,0.00,0.00,VWS V14.01,2013-09-19 14:19:00,
2013-09-19 07:24:00,53.8,53.8,29.88,South,180,0.0,0.0,100,0.00,,,0.00,0.00,VWS V14.01,2013-09-19 14:24:00,
2013-09-19 07:29:00,54.0,54.0,29.91,South,180,0.0,0.0,100,0.00,,,0.00,0.00,VWS V14.01,2013-09-19 14:29:00,
2013-09-19 07:30:00,54.0,54.0,29.91,South,180,0.0,0.0,100,0.00,,,0.00,0.00,VWS V14.01,2013-09-19 14:30:00,
2013-09-19 07:34:00,54.1,54.1,29.91,South,180,0.0,0.0,100,0.00,,,0.00,0.00,VWS V14.01,2013-09-19 14:34:00,
2013-09-19 07:39:00,54.1,54.1,29.91,South,180,0.0,0.0,100,0.00,,,0.00,0.00,VWS V14.01,2013-09-19 14:39:00,
2013-09-19 07:44:00,54.3,54.3,29.88,South,180,0.0,0.0,100,0.00,,,0.00,0.00,VWS V14.01,2013-09-19 14:44:00,
2013-09-19 07:45:00,54.3,54.3,29.88,South,180,0.0,0.0,100,0.00,,,0.00,0.00,VWS V14.01,2013-09-19 14:45:00,
2013-09-19 07:49:00,54.5,54.5,29.88,South,180,0.0,0.0,100,0.00,,,0.00,0.00,VWS V14.01,2013-09-19 14:49:00,
2013-09-19 07:54:00,54.7,54.7,29.88,South,180,0.0,0.0,100,0.00,,,0.00,0.00,VWS V14.01,2013-09-19 14:54:00,
2013-09-19 07:59:00,55.0,55.0,29.88,South,180,0.0,0.0,100,0.00,,,0.00,0.00,VWS V14.01,2013-09-19 14:59:00,
2013-09-19 08:00:00,55.0,55.0,29.88,South,180,0.0,0.0,100,0.00,,,0.00,0.00,VWS V14.01,2013-09-19 15:00:00,
2013-09-19 08:04:00,55.8,55.8,29.88,South,180,0.0,0.0,100,0.00,,,0.00,0.00,VWS V14.01,2013-09-19 15:04:00,
2013-09-19 08:09:00,57.0,57.0,29.88,South,180,0.0,0.0,100,0.00,,,0.00,0.00,VWS V14.01,2013-09-19 15:09:00,
2013-09-19 08:14:00,57.7,57.7,29.88,South,180,0.0,0.0,100,0.00,,,0.00,0.00,VWS V14.01,2013-09-19 15:14:00,
2013-09-19 08:15:00,57.7,57.7,29.88,South,180,0.0,0.0,100,0.00,,,0.00,0.00,VWS V14.01,2013-09-19 15:15:00,
2013-09-19 08:20:00,58.5,58.2,29.88,South,180,0.0,0.0,99,0.00,,,0.00,0.00,VWS V14.01,2013-09-19 15:20:00,
2013-09-19 08:25:00,59.4,58.8,29.88,South,180,0.0,0.0,98,0.00,,,0.00,0.00,VWS V14.01,2013-09-19 15:25:00,
2013-09-19 08:30:00,60.1,59.5,29.88,South,180,0.0,0.0,98,0.00,,,0.00,0.00,VWS V14.01,2013-09-19 15:30:00,
2013-09-19 08:35:00,60.6,59.8,29.88,South,180,0.0,0.0,97,0.00,,,0.00,0.00,VWS V14.01,2013-09-19 15:35:00,
2013-09-19 08:41:00,61.3,60.2,29.88,SSE,158,0.0,0.0,96,0.00,,,0.00,0.00,VWS V14.01,2013-09-19 15:41:00,
2013-09-19 08:45:00,61.9,60.7,29.91,SSE,158,0.0,0.0,96,0.00,,,0.00,0.00,VWS V14.01,2013-09-19 15:45:00,
2013-09-19 08:46:00,62.2,61.1,29.91,SSE,158,0.0,0.0,96,0.00,,,0.00,0.00,VWS V14.01,2013-09-19 15:46:00,
2013-09-19 08:51:00,62.6,60.8,29.91,ESE,112,0.0,0.0,94,0.00,,,0.00,0.00,VWS V14.01,2013-09-19 15:51:00,
2013-09-19 08:56:00,63.1,61.4,29.91,ESE,112,0.0,0.0,94,0.00,,,0.00,0.00,VWS V14.01,2013-09-19 15:56:00,
2013-09-19 09:00:00,63.5,61.4,29.91,ESE,112,0.0,0.0,93,0.00,,,0.00,0.00,VWS V14.01,2013-09-19 16:00:00,
2013-09-19 09:01:00,63.7,61.6,29.91,ESE,112,0.0,0.0,93,0.00,,,0.00,0.00,VWS V14.01,2013-09-19 16:01:00,
2013-09-19 09:06:00,64.2,61.8,29.91,ESE,112,0.0,0.0,92,0.00,,,0.00,0.00,VWS V14.01,2013-09-19 16:06:00,
2013-09-19 09:12:00,64.8,62.1,29.91,ESE,112,0.0,0.0,91,0.00,,,0.00,0.00,VWS V14.01,2013-09-19 16:12:00,
2013-09-19 09:15:00,64.9,61.9,29.91,ESE,112,0.0,0.0,90,0.00,,,0.00,0.00,VWS V14.01,2013-09-19 16:15:00,
2013-09-19 09:17:00,65.1,62.1,29.91,ESE,112,0.0,0.0,90,0.00,,,0.00,0.00,VWS V14.01,2013-09-19 16:17:00,
2013-09-19 09:22:00,65.8,62.5,29.91,ESE,112,0.0,0.0,89,0.00,,,0.00,0.00,VWS V14.01,2013-09-19 16:22:00,
2013-09-19 09:27:00,65.5,61.2,29.91,East,90,0.0,0.0,86,0.00,,,0.00,0.00,VWS V14.01,2013-09-19 16:27:00,
2013-09-19 09:30:00,65.7,61.0,29.91,East,90,0.0,0.0,85,0.00,,,0.00,0.00,VWS V14.01,2013-09-19 16:30:00,
2013-09-19 09:32:00,65.7,60.7,29.91,East,90,0.0,0.0,84,0.00,,,0.00,0.00,VWS V14.01,2013-09-19 16:32:00,
2013-09-19 09:37:00,65.8,60.5,29.91,ENE,68,0.0,0.0,83,0.00,,,0.00,0.00,VWS V14.01,2013-09-19 16:37:00,
2013-09-19 09:42:00,65.5,60.2,29.91,East,90,0.0,0.0,83,0.00,,,0.00,0.00,VWS V14.01,2013-09-19 16:42:00,
2013-09-19 09:45:00,65.7,60.4,29.91,East,90,0.0,0.0,83,0.00,,,0.00,0.00,VWS V14.01,2013-09-19 16:45:00,
2013-09-19 09:47:00,65.8,60.5,29.91,East,90,0.0,0.0,83,0.00,,,0.00,0.00,VWS V14.01,2013-09-19 16:47:00,
2013-09-19 09:52:00,66.2,60.5,29.91,NE,45,0.0,2.7,82,0.00,,,0.00,0.00,VWS V14.01,2013-09-19 16:52:00,
2013-09-19 09:57:00,66.7,61.4,29.91,ENE,68,0.0,2.9,83,0.00,,,0.00,0.00,VWS V14.01,2013-09-19 16:57:00,
2013-09-19 10:00:00,67.3,62.3,29.94,ENE,68,0.0,2.9,84,0.00,,,0.00,0.00,VWS V14.01,2013-09-19 17:00:00,
2013-09-19 10:02:00,67.3,62.0,29.94,ENE,68,0.0,0.0,83,0.00,,,0.00,0.00,VWS V14.01,2013-09-19 17:02:00,
2013-09-19 10:07:00,68.0,63.0,29.94,NE,45,3.8,3.8,84,0.00,,,0.00,0.00,VWS V14.01,2013-09-19 17:07:00,
2013-09-19 10:12:00,67.8,62.1,29.94,NNE,22,3.8,4.0,82,0.00,,,0.00,0.00,VWS V14.01,2013-09-19 17:12:00,
2013-09-19 10:15:00,68.2,62.5,29.94,East,90,4.3,4.3,82,0.00,,,0.00,0.00,VWS V14.01,2013-09-19 17:15:00,
2013-09-19 10:17:00,68.0,62.0,29.94,NE,45,3.1,5.6,81,0.00,,,0.00,0.00,VWS V14.01,2013-09-19 17:17:00,
2013-09-19 10:22:00,68.4,62.0,29.94,NE,45,3.4,5.6,80,0.00,,,0.00,0.00,VWS V14.01,2013-09-19 17:22:00,
2013-09-19 10:28:00,68.9,62.1,29.94,NNE,22,2.5,5.6,79,0.00,,,0.00,0.00,VWS V14.01,2013-09-19 17:28:00,
2013-09-19 10:30:00,69.3,62.5,29.94,NE,45,3.1,5.6,79,0.00,,,0.00,0.00,VWS V14.01,2013-09-19 17:30:00,
2013-09-19 10:33:00,68.5,61.8,29.94,NNE,22,3.4,5.4,79,0.00,,,0.00,0.00,VWS V14.01,2013-09-19 17:33:00,
2013-09-19 10:38:00,68.4,61.2,29.94,NE,45,3.8,6.0,78,0.00,,,0.00,0.00,VWS V14.01,2013-09-19 17:38:00,
2013-09-19 10:43:00,68.7,61.2,29.94,NE,45,4.0,6.0,77,0.00,,,0.00,0.00,VWS V14.01,2013-09-19 17:43:00,
2013-09-19 10:45:00,69.3,62.5,29.94,ENE,68,1.3,6.0,79,0.00,,,0.00,0.00,VWS V14.01,2013-09-19 17:45:00,
2013-09-19 10:48:00,69.6,62.5,29.94,ENE,68,1.1,4.0,78,0.00,,,0.00,0.00,VWS V14.01,2013-09-19 17:48:00,
2013-09-19 10:53:00,70.5,63.0,29.94,East,90,3.8,5.4,77,0.00,,,0.00,0.00,VWS V14.01,2013-09-19 17:53:00,
2013-09-19 10:58:00,70.2,61.9,29.94,North,0,2.0,5.4,75,0.00,,,0.00,0.00,VWS V14.01,2013-09-19 17:58:00,
2013-09-19 11:00:00,70.5,62.2,29.94,NE,45,4.5,5.4,75,0.00,,,0.00,0.00,VWS V14.01,2013-09-19 18:00:00,
2013-09-19 11:03:00,70.7,62.4,29.94,ENE,68,2.0,4.5,75,0.00,,,0.00,0.00,VWS V14.01,2013-09-19 18:03:00,
2013-09-19 11:08:00,70.7,61.6,29.94,North,0,2.5,4.5,73,0.00,,,0.00,0.00,VWS V14.01,2013-09-19 18:08:00,
2013-09-19 11:13:00,72.0,62.5,29.94,NE,45,2.9,4.5,72,0.00,,,0.00,0.00,VWS V14.01,2013-09-19 18:13:00,
2013-09-19 11:15:00,71.2,61.8,29.94,North,0,2.9,6.0,72,0.00,,,0.00,0.00,VWS V14.01,2013-09-19 18:15:00,
2013-09-19 11:18:00,72.0,62.5,29.94,East,90,2.9,3.1,72,0.00,,,0.00,0.00,VWS V14.01,2013-09-19 18:18:00,
2013-09-19 11:23:00,72.0,62.0,29.94,NE,45,2.5,4.3,71,0.00,,,0.00,0.00,VWS V14.01,2013-09-19 18:23:00,
2013-09-19 11:28:00,72.3,62.4,29.94,ENE,68,3.6,4.3,71,0.00,,,0.00,0.00,VWS V14.01,2013-09-19 18:28:00,
2013-09-19 11:30:00,72.3,62.4,29.94,NE,45,2.5,4.3,71,0.00,,,0.00,0.00,VWS V14.01,2013-09-19 18:30:00,
2013-09-19 11:34:00,72.0,61.7,29.94,NE,45,4.0,4.7,70,0.00,,,0.00,0.00,VWS V14.01,2013-09-19 18:34:00,
2013-09-19 11:39:00,72.5,62.2,29.94,NNW,338,3.4,4.7,70,0.00,,,0.00,0.00,VWS V14.01,2013-09-19 18:39:00,
2013-09-19 11:44:00,73.2,61.6,29.94,NE,45,2.7,4.7,67,0.00,,,0.00,0.00,VWS V14.01,2013-09-19 18:44:00,
2013-09-19 11:45:00,73.6,61.5,29.94,North,0,2.9,4.7,66,0.00,,,0.00,0.00,VWS V14.01,2013-09-19 18:45:00,
2013-09-19 11:49:00,73.8,60.8,29.94,ENE,68,2.0,3.6,64,0.00,,,0.00,0.00,VWS V14.01,2013-09-19 18:49:00,
2013-09-19 11:54:00,74.8,61.0,29.94,ENE,68,4.0,4.3,62,0.00,,,0.00,0.00,VWS V14.01,2013-09-19 18:54:00,
2013-09-19 11:59:00,74.1,55.9,29.94,NE,45,4.9,4.9,53,0.00,,,0.00,0.00,VWS V14.01,2013-09-19 18:59:00,
2013-09-19 12:00:00,73.9,56.3,29.94,NE,45,3.8,4.9,54,0.00,,,0.00,0.00,VWS V14.01,2013-09-19 19:00:00,
2013-09-19 12:04:00,75.0,57.3,29.94,NE,45,0.0,4.9,54,0.00,,,0.00,0.00,VWS V14.01,2013-09-19 19:04:00,
2013-09-19 12:09:00,75.0,55.7,29.94,ENE,68,2.7,5.4,51,0.00,,,0.00,0.00,VWS V14.01,2013-09-19 19:09:00,
2013-09-19 12:14:00,75.6,56.2,29.91,ENE,68,2.9,5.4,51,0.00,,,0.00,0.00,VWS V14.01,2013-09-19 19:14:00,
2013-09-19 12:15:00,75.6,56.2,29.91,ENE,68,3.8,5.4,51,0.00,,,0.00,0.00,VWS V14.01,2013-09-19 19:15:00,
2013-09-19 12:19:00,75.4,56.0,29.91,NE,45,4.3,4.7,51,0.00,,,0.00,0.00,VWS V14.01,2013-09-19 19:19:00,
2013-09-19 12:24:00,75.4,56.0,29.91,NE,45,2.7,5.4,51,0.00,,,0.00,0.00,VWS V14.01,2013-09-19 19:24:00,
2013-09-19 12:30:00,75.6,55.6,29.91,NE,45,0.0,5.4,50,0.00,,,0.00,0.00,VWS V14.01,2013-09-19 19:30:00,
2013-09-19 12:35:00,76.1,56.1,29.91,NE,45,2.7,4.5,50,0.00,,,0.00,0.00,VWS V14.01,2013-09-19 19:35:00,
2013-09-19 12:41:00,76.3,55.7,29.91,NE,45,3.8,4.9,49,0.00,,,0.00,0.00,VWS V14.01,2013-09-19 19:41:00,
2013-09-19 12:45:00,76.3,56.3,29.91,NE,45,0.0,4.9,50,0.00,,,0.00,0.00,VWS V14.01,2013-09-19 19:45:00,
2013-09-19 12:47:00,76.1,55.6,29.91,NE,45,3.6,3.6,49,0.00,,,0.00,0.00,VWS V14.01,2013-09-19 19:47:00,
2013-09-19 12:52:00,77.0,56.4,29.91,NNE,22,0.0,4.0,49,0.00,,,0.00,0.00,VWS V14.01,2013-09-19 19:52:00,
2013-09-19 12:57:00,77.4,56.7,29.91,NE,45,0.0,4.0,49,0.00,,,0.00,0.00,VWS V14.01,2013-09-19 19:57:00,
2013-09-19 13:00:00,77.5,57.5,29.91,North,0,0.0,4.0,50,0.00,,,0.00,0.00,VWS V14.01,2013-09-19 20:00:00,
2013-09-19 13:02:00,77.4,57.8,29.91,SSW,202,7.8,7.8,51,0.00,,,0.00,0.00,VWS V14.01,2013-09-19 20:02:00,
2013-09-19 13:08:00,77.2,60.8,29.91,ESE,112,3.6,10.3,57,0.00,,,0.00,0.00,VWS V14.01,2013-09-19 20:08:00,
2013-09-19 13:13:00,76.8,61.4,29.91,South,180,5.8,10.7,59,0.00,,,0.00,0.00,VWS V14.01,2013-09-19 20:13:00,
2013-09-19 13:15:00,76.8,61.4,29.91,SW,225,5.8,11.4,59,0.00,,,0.00,0.00,VWS V14.01,2013-09-19 20:15:00,
2013-09-19 13:18:00,76.6,60.8,29.91,ESE,112,7.4,10.5,58,0.00,,,0.00,0.00,VWS V14.01,2013-09-19 20:18:00,
2013-09-19 13:23:00,76.3,60.4,29.91,SSW,202,7.2,11.9,58,0.00,,,0.00,0.00,VWS V14.01,2013-09-19 20:23:00,
2013-09-19 13:28:00,75.7,60.4,29.91,SE,135,6.9,11.9,59,0.00,,,0.00,0.00,VWS V14.01,2013-09-19 20:28:00,
2013-09-19 13:30:00,75.6,59.8,29.91,SSW,202,6.3,11.9,58,0.00,,,0.00,0.00,VWS V14.01,2013-09-19 20:30:00,
2013-09-19 13:33:00,75.4,59.1,29.91,South,180,4.5,14.3,57,0.00,,,0.00,0.00,VWS V14.01,2013-09-19 20:33:00,
2013-09-19 13:39:00,75.6,59.8,29.91,SE,135,5.6,14.3,58,0.00,,,0.00,0.00,VWS V14.01,2013-09-19 20:39:00,
2013-09-19 13:44:00,75.9,59.6,29.91,SSW,202,2.9,14.3,57,0.00,,,0.00,0.00,VWS V14.01,2013-09-19 20:44:00,
2013-09-19 13:45:00,75.9,59.1,29.91,SW,225,7.4,14.3,56,0.00,,,0.00,0.00,VWS V14.01,2013-09-19 20:45:00,
2013-09-19 13:49:00,76.3,58.9,29.91,SSE,158,4.3,12.8,55,0.00,,,0.00,0.00,VWS V14.01,2013-09-19 20:49:00,
2013-09-19 13:55:00,76.3,58.4,29.91,SSE,158,8.7,12.8,54,0.00,,,0.00,0.00,VWS V14.01,2013-09-19 20:55:00,
2013-09-19 14:00:00,76.1,57.8,29.91,South,180,6.5,12.8,53,0.00,,,0.00,0.00,VWS V14.01,2013-09-19 21:00:00,
2013-09-19 14:05:00,75.7,57.4,29.91,SSW,202,5.4,13.2,53,0.00,,,0.00,0.00,VWS V14.01,2013-09-19 21:05:00,
2013-09-19 14:10:00,75.4,57.1,29.91,South,180,3.6,13.2,53,0.00,,,0.00,0.00,VWS V14.01,2013-09-19 21:10:00,
2013-09-19 14:15:00,74.7,56.4,29.91,SSE,158,10.5,10.5,53,0.00,,,0.00,0.00,VWS V14.01,2013-09-19 21:15:00,
2013-09-19 14:20:00,74.7,56.4,29.91,South,180,10.1,17.2,53,0.00,,,0.00,0.00,VWS V14.01,2013-09-19 21:20:00,
2013-09-19 14:25:00,75.2,56.9,29.91,SE,135,5.6,17.2,53,0.00,,,0.00,0.00,VWS V14.01,2013-09-19 21:25:00,
2013-09-19 14:30:00,75.6,56.2,29.88,South,180,9.8,10.7,51,0.00,,,0.00,0.00,VWS V14.01,2013-09-19 21:30:00,
2013-09-19 14:35:00,75.6,56.2,29.88,West,270,7.8,14.8,51,0.00,,,0.00,0.00,VWS V14.01,2013-09-19 21:35:00,
2013-09-19 14:40:00,75.4,56.0,29.88,SSW,202,7.6,15.7,51,0.00,,,0.00,0.00,VWS V14.01,2013-09-19 21:40:00,
2013-09-19 14:45:00,75.0,55.7,29.88,South,180,12.8,12.8,51,0.00,,,0.00,0.00,VWS V14.01,2013-09-19 21:45:00,
2013-09-19 14:51:00,75.4,54.9,29.88,SSE,158,11.0,13.6,49,0.00,,,0.00,0.00,VWS V14.01,2013-09-19 21:51:00,
2013-09-19 14:56:00,75.2,54.8,29.88,South,180,8.5,21.0,49,0.00,,,0.00,0.00,VWS V14.01,2013-09-19 21:56:00,
2013-09-19 15:00:00,75.4,54.3,29.88,South,180,9.4,21.0,48,0.00,,,0.00,0.00,VWS V14.01,2013-09-19 22:00:00,
2013-09-19 15:01:00,75.4,54.3,29.88,South,180,7.2,11.0,48,0.00,,,0.00,0.00,VWS V14.01,2013-09-19 22:01:00,
2013-09-19 15:06:00,75.0,54.0,29.88,SSW,202,10.3,16.8,48,0.00,,,0.00,0.00,VWS V14.01,2013-09-19 22:06:00,
2013-09-19 15:11:00,74.8,53.8,29.88,South,180,11.0,16.8,48,0.00,,,0.00,0.00,VWS V14.01,2013-09-19 22:11:00,
2013-09-19 15:15:00,74.8,53.3,29.88,SSE,158,12.1,17.0,47,0.00,,,0.00,0.00,VWS V14.01,2013-09-19 22:15:00,
2013-09-19 15:17:00,74.8,53.3,29.88,SSW,202,13.0,13.0,47,0.00,,,0.00,0.00,VWS V14.01,2013-09-19 22:17:00,
2013-09-19 15:22:00,75.0,53.4,29.88,SSE,158,7.2,14.3,47,0.00,,,0.00,0.00,VWS V14.01,2013-09-19 22:22:00,
2013-09-19 15:27:00,74.7,53.1,29.88,South,180,14.8,15.4,47,0.00,,,0.00,0.00,VWS V14.01,2013-09-19 22:27:00,
2013-09-19 15:30:00,74.7,53.1,29.88,South,180,8.1,18.8,47,0.00,,,0.00,0.00,VWS V14.01,2013-09-19 22:30:00,
2013-09-19 15:32:00,74.8,53.8,29.88,SW,225,9.4,11.0,48,0.00,,,0.00,0.00,VWS V14.01,2013-09-19 22:32:00,
2013-09-19 15:37:00,74.7,53.7,29.88,South,180,5.8,16.3,48,0.00,,,0.00,0.00,VWS V14.01,2013-09-19 22:37:00,
2013-09-19 15:42:00,74.7,53.7,29.88,SSW,202,19.7,19.7,48,0.00,,,0.00,0.00,VWS V14.01,2013-09-19 22:42:00,
2013-09-19 15:45:00,74.5,53.5,29.88,South,180,7.6,19.7,48,0.00,,,0.00,0.00,VWS V14.01,2013-09-19 22:45:00,
2013-09-19 15:47:00,74.5,53.5,29.88,SSW,202,15.2,15.2,48,0.00,,,0.00,0.00,VWS V14.01,2013-09-19 22:47:00,
2013-09-19 15:52:00,74.3,53.4,29.88,SSW,202,14.8,16.3,48,0.00,,,0.00,0.00,VWS V14.01,2013-09-19 22:52:00,
2013-09-19 15:57:00,74.3,53.4,29.88,SSW,202,11.0,16.8,48,0.00,,,0.00,0.00,VWS V14.01,2013-09-19 22:57:00,
2013-09-19 16:00:00,74.5,53.0,29.85,SW,225,7.8,16.8,47,0.00,,,0.00,0.00,VWS V14.01,2013-09-19 23:00:00,
2013-09-19 16:02:00,74.7,53.1,29.85,SSW,202,12.1,13.0,47,0.00,,,0.00,0.00,VWS V14.01,2013-09-19 23:02:00,
2013-09-19 16:07:00,74.8,53.3,29.85,SSW,202,7.8,14.3,47,0.00,,,0.00,0.00,VWS V14.01,2013-09-19 23:07:00,
2013-09-19 16:12:00,74.8,53.8,29.85,SSW,202,8.7,17.2,48,0.00,,,0.00,0.00,VWS V14.01,2013-09-19 23:12:00,
2013-09-19 16:15:00,74.7,53.7,29.85,South,180,11.2,17.2,48,0.00,,,0.00,0.00,VWS V14.01,2013-09-19 23:15:00,
2013-09-19 16:18:00,74.5,54.1,29.85,SSE,158,13.6,18.1,49,0.00,,,0.00,0.00,VWS V14.01,2013-09-19 23:18:00,
2013-09-19 16:23:00,75.0,54.0,29.85,SSE,158,10.3,18.1,48,0.00,,,0.00,0.00,VWS V14.01,2013-09-19 23:23:00,
2013-09-19 16:28:00,74.5,53.5,29.85,South,180,13.2,19.0,48,0.00,,,0.00,0.00,VWS V14.01,2013-09-19 23:28:00,
2013-09-19 16:30:00,74.5,54.1,29.85,SSE,158,12.8,19.0,49,0.00,,,0.00,0.00,VWS V14.01,2013-09-19 23:30:00,
2013-09-19 16:33:00,74.7,53.7,29.85,SSE,158,4.9,12.8,48,0.00,,,0.00,0.00,VWS V14.01,2013-09-19 23:33:00,
2013-09-19 16:38:00,75.2,53.0,29.85,South,180,7.6,12.8,46,0.00,,,0.00,0.00,VWS V14.01,2013-09-19 23:38:00,
2013-09-19 16:43:00,75.4,52.6,29.85,South,180,7.8,16.3,45,0.00,,,0.00,0.00,VWS V14.01,2013-09-19 23:43:00,
2013-09-19 16:45:00,75.4,53.2,29.85,SSW,202,11.0,16.3,46,0.00,,,0.00,0.00,VWS V14.01,2013-09-19 23:45:00,
2013-09-19 16:48:00,75.6,53.3,29.85,SW,225,8.1,12.8,46,0.00,,,0.00,0.00,VWS V14.01,2013-09-19 23:48:00,
2013-09-19 16:54:00,76.1,52.6,29.85,ESE,112,10.1,14.3,44,0.00,,,0.00,0.00,VWS V14.01,2013-09-19 23:54:00,
2013-09-19 16:59:00,76.5,52.3,29.85,SSW,202,5.8,14.3,43,0.00,,,0.00,0.00,VWS V14.01,2013-09-19 23:59:00,
2013-09-19 17:00:00,76.6,52.5,29.85,South,180,5.6,14.3,43,0.00,,,0.00,0.00,VWS V14.01,2013-09-20 00:00:00,
2013-09-19 17:04:00,76.8,52.7,29.85,South,180,6.0,12.3,43,0.00,,,0.00,0.00,VWS V14.01,2013-09-20 00:04:00,
2013-09-19 17:09:00,77.2,51.7,29.85,SE,135,7.8,12.3,41,0.00,,,0.00,0.00,VWS V14.01,2013-09-20 00:09:00,
2013-09-19 17:14:00,77.4,50.5,29.85,South,180,7.8,12.8,39,0.00,,,0.00,0.00,VWS V14.01,2013-09-20 00:14:00,
2013-09-19 17:15:00,77.4,50.5,29.85,SSW,202,5.6,12.8,39,0.00,,,0.00,0.00,VWS V14.01,2013-09-20 00:15:00,
2013-09-19 17:19:00,77.4,50.5,29.85,SSW,202,4.3,8.5,39,0.00,,,0.00,0.00,VWS V14.01,2013-09-20 00:19:00,
2013-09-19 17:24:00,77.0,52.2,29.85,SSW,202,12.3,12.8,42,0.00,,,0.00,0.00,VWS V14.01,2013-09-20 00:24:00,
2013-09-19 17:29:00,76.8,50.0,29.85,South,180,4.3,12.8,39,0.00,,,0.00,0.00,VWS V14.01,2013-09-20 00:29:00,
2013-09-19 17:30:00,76.8,50.0,29.85,South,180,9.4,12.8,39,0.00,,,0.00,0.00,VWS V14.01,2013-09-20 00:30:00,
2013-09-19 17:34:00,77.0,49.5,29.85,SSE,158,9.8,11.0,38,0.00,,,0.00,0.00,VWS V14.01,2013-09-20 00:34:00,
2013-09-19 17:39:00,77.2,50.3,29.85,South,180,6.0,11.9,39,0.00,,,0.00,0.00,VWS V14.01,2013-09-20 00:39:00,
2013-09-19 17:44:00,76.8,51.4,29.85,SW,225,10.3,13.2,41,0.00,,,0.00,0.00,VWS V14.01,2013-09-20 00:44:00,
2013-09-19 17:45:00,76.5,52.3,29.85,SW,225,7.6,13.2,43,0.00,,,0.00,0.00,VWS V14.01,2013-09-20 00:45:00,
2013-09-19 17:49:00,74.1,55.9,29.85,SW,225,12.5,16.3,53,0.00,,,0.00,0.00,VWS V14.01,2013-09-20 00:49:00,
2013-09-19 17:54:00,70.3,58.0,29.85,South,180,12.3,18.6,65,0.00,,,0.00,0.00,VWS V14.01,2013-09-20 00:54:00,
2013-09-19 17:59:00,69.3,58.3,29.82,South,180,17.7,18.6,68,0.00,,,0.00,0.00,VWS V14.01,2013-09-20 00:59:00,
2013-09-19 18:00:00,69.3,58.3,29.82,SSW,202,10.1,18.6,68,0.00,,,0.00,0.00,VWS V14.01,2013-09-20 01:00:00,
2013-09-19 18:04:00,70.0,55.5,29.82,SSW,202,8.1,12.5,60,0.00,,,0.00,0.00,VWS V14.01,2013-09-20 01:04:00,
2013-09-19 18:09:00,71.8,51.6,29.82,SSW,202,9.8,14.5,49,0.00,,,0.00,0.00,VWS V14.01,2013-09-20 01:09:00,
2013-09-19 18:14:00,73.6,51.0,29.82,SSE,158,11.0,14.5,45,0.00,,,0.00,0.00,VWS V14.01,2013-09-20 01:14:00,
2013-09-19 18:15:00,73.8,50.5,29.82,South,180,11.9,14.5,44,0.00,,,0.00,0.00,VWS V14.01,2013-09-20 01:15:00,
2013-09-19 18:19:00,74.8,52.1,29.82,SW,225,5.4,11.9,45,0.00,,,0.00,0.00,VWS V14.01,2013-09-20 01:19:00,
2013-09-19 18:24:00,74.7,52.5,29.82,South,180,12.1,15.4,46,0.00,,,0.00,0.00,VWS V14.01,2013-09-20 01:24:00,
2013-09-19 18:29:00,75.0,52.3,29.82,South,180,10.7,17.2,45,0.00,,,0.00,0.00,VWS V14.01,2013-09-20 01:29:00,
2013-09-19 18:30:00,75.0,52.3,29.82,South,180,10.7,17.2,45,0.00,,,0.00,0.00,VWS V14.01,2013-09-20 01:30:00,
2013-09-19 18:35:00,75.7,51.7,29.82,SE,135,10.3,16.3,43,0.00,,,0.00,0.00,VWS V14.01,2013-09-20 01:35:00,
2013-09-19 18:40:00,75.9,51.8,29.82,SSE,158,6.7,16.3,43,0.00,,,0.00,0.00,VWS V14.01,2013-09-20 01:40:00,
2013-09-19 18:45:00,75.2,52.4,29.82,SE,135,12.8,16.3,45,0.00,,,0.00,0.00,VWS V14.01,2013-09-20 01:45:00,
2013-09-19 18:50:00,74.5,52.4,29.82,South,180,8.5,14.5,46,0.00,,,0.00,0.00,VWS V14.01,2013-09-20 01:50:00,
2013-09-19 18:55:00,73.8,52.3,29.82,SSE,158,8.7,14.5,47,0.00,,,0.00,0.00,VWS V14.01,2013-09-20 01:55:00,
2013-09-19 19:00:00,74.1,50.8,29.85,SE,135,8.7,14.5,44,0.00,,,0.00,0.00,VWS V14.01,2013-09-20 02:00:00,
2013-09-19 19:05:00,74.5,48.6,29.85,South,180,9.4,10.5,40,0.00,,,0.00,0.00,VWS V14.01,2013-09-20 02:05:00,
2013-09-19 19:10:00,74.5,49.9,29.85,SSE,158,10.3,10.5,42,0.00,,,0.00,0.00,VWS V14.01,2013-09-20 02:10:00,
2013-09-19 19:15:00,73.9,49.4,29.85,SSE,158,3.6,3.6,42,0.00,,,0.00,0.00,VWS V14.01,2013-09-20 02:15:00,
2013-09-19 19:20:00,73.8,48.6,29.85,SE,135,0.0,9.6,41,0.00,,,0.00,0.00,VWS V14.01,2013-09-20 02:20:00,
2013-09-19 19:25:00,73.2,49.4,29.85,WNW,292,0.0,9.6,43,0.00,,,0.00,0.00,VWS V14.01,2013-09-20 02:25:00,
2013-09-19 19:30:00,72.0,50.1,29.85,WNW,292,0.0,0.0,46,0.00,,,0.00,0.00,VWS V14.01,2013-09-20 02:30:00,
2013-09-19 19:35:00,71.1,50.4,29.85,WNW,292,0.0,0.0,48,0.00,,,0.00,0.00,VWS V14.01,2013-09-20 02:35:00,
2013-09-19 19:40:00,69.6,50.7,29.85,South,180,0.0,1.6,51,0.00,,,0.00,0.00,VWS V14.01,2013-09-20 02:40:00,
2013-09-19 19:45:00,68.5,48.6,29.85,South,180,0.0,1.3,49,0.00,,,0.00,0.00,VWS V14.01,2013-09-20 02:45:00,
2013-09-19 19:50:00,67.8,46.9,29.85,South,180,0.0,2.2,47,0.00,,,0.00,0.00,VWS V14.01,2013-09-20 02:50:00,
2013-09-19 19:55:00,67.3,46.4,29.85,South,180,0.0,2.2,47,0.00,,,0.00,0.00,VWS V14.01,2013-09-20 02:55:00,
2013-09-19 20:00:00,66.9,46.6,29.85,South,180,0.0,0.0,48,0.00,,,0.00,0.00,VWS V14.01,2013-09-20 03:00:00,
2013-09-19 20:05:00,66.6,46.3,29.85,South,180,0.0,2.2,48,0.00,,,0.00,0.00,VWS V14.01,2013-09-20 03:05:00,
2013-09-19 20:10:00,66.2,46.0,29.85,South,180,0.0,2.2,48,0.00,,,0.00,0.00,VWS V14.01,2013-09-20 03:10:00,
2013-09-19 20:15:00,66.0,45.2,29.85,South,180,2.0,2.2,47,0.00,,,0.00,0.00,VWS V14.01,2013-09-20 03:15:00,
2013-09-19 20:20:00,65.7,45.5,29.85,South,180,0.0,2.2,48,0.00,,,0.00,0.00,VWS V14.01,2013-09-20 03:20:00,
2013-09-19 20:25:00,65.5,46.4,29.85,South,180,0.0,2.2,50,0.00,,,0.00,0.00,VWS V14.01,2013-09-20 03:25:00,
2013-09-19 20:30:00,65.3,47.8,29.85,South,180,0.0,0.0,53,0.00,,,0.00,0.00,VWS V14.01,2013-09-20 03:30:00,
2013-09-19 20:35:00,64.9,48.9,29.85,South,180,0.0,0.0,56,0.00,,,0.00,0.00,VWS V14.01,2013-09-20 03:35:00,
2013-09-19 20:40:00,64.8,47.8,29.85,South,180,0.0,0.0,54,0.00,,,0.00,0.00,VWS V14.01,2013-09-20 03:40:00,
2013-09-19 20:45:00,64.4,47.4,29.85,South,180,0.0,0.0,54,0.00,,,0.00,0.00,VWS V14.01,2013-09-20 03:45:00,
2013-09-19 20:50:00,63.9,46.4,29.85,South,180,1.6,3.1,53,0.00,,,0.00,0.00,VWS V14.01,2013-09-20 03:50:00,
2013-09-19 20:55:00,63.5,47.5,29.85,South,180,0.0,3.1,56,0.00,,,0.00,0.00,VWS V14.01,2013-09-20 03:55:00,
2013-09-19 21:00:00,63.3,48.3,29.85,South,180,0.0,0.0,58,0.00,,,0.00,0.00,VWS V14.01,2013-09-20 04:00:00,
2013-09-19 21:01:00,63.3,48.8,29.85,South,180,0.0,0.0,59,0.00,,,0.00,0.00,VWS V14.01,2013-09-20 04:01:00,
2013-09-19 21:03:00,63.1,49.0,29.85,South,180,0.0,0.0,60,0.00,,,0.00,0.00,VWS V14.01,2013-09-20 04:03:00,
2013-09-19 21:04:00,63.1,49.5,29.85,South,180,0.0,0.0,61,0.00,,,0.00,0.00,VWS V14.01,2013-09-20 04:04:00,
2013-09-19 21:05:00,63.0,49.3,29.85,South,180,0.0,0.0,61,0.00,,,0.00,0.00,VWS V14.01,2013-09-20 04:05:00,
2013-09-19 21:06:00,63.0,49.3,29.85,South,180,0.0,0.0,61,0.00,,,0.00,0.00,VWS V14.01,2013-09-20 04:06:00,
2013-09-19 21:12:00,62.6,48.1,29.85,South,180,0.0,0.0,59,0.00,,,0.00,0.00,VWS V14.01,2013-09-20 04:12:00,
2013-09-19 21:15:00,62.6,49.0,29.85,South,180,0.0,0.0,61,0.00,,,0.00,0.00,VWS V14.01,2013-09-20 04:15:00,
2013-09-19 21:17:00,62.4,49.2,29.85,South,180,0.0,0.0,62,0.00,,,0.00,0.00,VWS V14.01,2013-09-20 04:17:00,
2013-09-19 21:22:00,62.1,48.9,29.85,South,180,0.0,0.0,62,0.00,,,0.00,0.00,VWS V14.01,2013-09-20 04:22:00,
2013-09-19 21:27:00,61.7,50.2,29.85,South,180,0.0,0.0,66,0.00,,,0.00,0.00,VWS V14.01,2013-09-20 04:27:00,
2013-09-19 21:30:00,61.7,50.7,29.88,South,180,0.0,0.0,67,0.00,,,0.00,0.00,VWS V14.01,2013-09-20 04:30:00,
2013-09-19 21:32:00,61.5,50.5,29.88,South,180,0.0,0.0,67,0.00,,,0.00,0.00,VWS V14.01,2013-09-20 04:32:00,
2013-09-19 21:37:00,61.2,50.9,29.88,South,180,0.0,0.0,69,0.00,,,0.00,0.00,VWS V14.01,2013-09-20 04:37:00,
2013-09-19 21:42:00,61.0,51.9,29.88,South,180,0.0,0.0,72,0.00,,,0.00,0.00,VWS V14.01,2013-09-20 04:42:00,
2013-09-19 21:45:00,60.8,52.1,29.85,South,180,0.0,0.0,73,0.00,,,0.00,0.00,VWS V14.01,2013-09-20 04:45:00,
2013-09-19 21:47:00,60.6,52.3,29.85,South,180,0.0,0.0,74,0.00,,,0.00,0.00,VWS V14.01,2013-09-20 04:47:00,
2013-09-19 21:52:00,60.6,52.3,29.85,South,180,0.0,0.0,74,0.00,,,0.00,0.00,VWS V14.01,2013-09-20 04:52:00,
2013-09-19 21:57:00,60.4,52.5,29.85,South,180,0.0,0.0,75,0.00,,,0.00,0.00,VWS V14.01,2013-09-20 04:57:00,
2013-09-19 22:00:00,60.3,52.3,29.85,South,180,0.0,0.0,75,0.00,,,0.00,0.00,VWS V14.01,2013-09-20 05:00:00,
2013-09-19 22:02:00,60.3,52.7,29.85,South,180,0.0,0.0,76,0.00,,,0.00,0.00,VWS V14.01,2013-09-20 05:02:00,
2013-09-19 22:07:00,60.1,52.9,29.85,South,180,0.0,0.0,77,0.00,,,0.00,0.00,VWS V14.01,2013-09-20 05:07:00,
2013-09-19 22:12:00,59.9,52.7,29.85,South,180,0.0,0.0,77,0.00,,,0.00,0.00,VWS V14.01,2013-09-20 05:12:00,
2013-09-19 22:15:00,59.9,52.7,29.85,South,180,0.0,0.0,77,0.00,,,0.00,0.00,VWS V14.01,2013-09-20 05:15:00,
2013-09-19 22:17:00,59.7,52.2,29.85,South,180,0.0,0.0,76,0.00,,,0.00,0.00,VWS V14.01,2013-09-20 05:17:00,
2013-09-19 22:22:00,59.4,52.2,29.85,South,180,0.0,0.0,77,0.00,,,0.00,0.00,VWS V14.01,2013-09-20 05:22:00,
2013-09-19 22:27:00,59.2,52.0,29.85,South,180,0.0,0.0,77,0.00,,,0.00,0.00,VWS V14.01,2013-09-20 05:27:00,
2013-09-19 22:30:00,59.2,52.3,29.85,South,180,0.0,0.0,78,0.00,,,0.00,0.00,VWS V14.01,2013-09-20 05:30:00,
2013-09-19 22:32:00,59.2,52.3,29.85,South,180,0.0,0.0,78,0.00,,,0.00,0.00,VWS V14.01,2013-09-20 05:32:00,
2013-09-19 22:38:00,59.2,53.0,29.85,South,180,0.0,0.0,80,0.00,,,0.00,0.00,VWS V14.01,2013-09-20 05:38:00,
2013-09-19 22:43:00,59.2,53.4,29.85,South,180,0.0,0.0,81,0.00,,,0.00,0.00,VWS V14.01,2013-09-20 05:43:00,
2013-09-19 22:45:00,59.2,53.7,29.85,South,180,0.0,0.0,82,0.00,,,0.00,0.00,VWS V14.01,2013-09-20 05:45:00,
2013-09-19 22:48:00,59.0,53.8,29.85,South,180,0.0,0.0,83,0.00,,,0.00,0.00,VWS V14.01,2013-09-20 05:48:00,
2013-09-19 22:53:00,58.6,53.2,29.85,South,180,0.0,0.0,82,0.00,,,0.00,0.00,VWS V14.01,2013-09-20 05:53:00,
2013-09-19 22:58:00,58.5,52.3,29.85,South,180,0.0,0.0,80,0.00,,,0.00,0.00,VWS V14.01,2013-09-20 05:58:00,
2013-09-19 23:00:00,58.1,52.3,29.85,South,180,0.0,0.0,81,0.00,,,0.00,0.00,VWS V14.01,2013-09-20 06:00:00,
2013-09-19 23:03:00,58.1,52.6,29.85,South,180,0.0,0.0,82,0.00,,,0.00,0.00,VWS V14.01,2013-09-20 06:03:00,
2013-09-19 23:08:00,57.9,52.5,29.85,South,180,0.0,0.0,82,0.00,,,0.00,0.00,VWS V14.01,2013-09-20 06:08:00,
2013-09-19 23:13:00,57.6,52.4,29.85,South,180,0.0,0.0,83,0.00,,,0.00,0.00,VWS V14.01,2013-09-20 06:13:00,
2013-09-19 23:15:00,57.6,52.1,29.85,South,180,0.0,0.0,82,0.00,,,0.00,0.00,VWS V14.01,2013-09-20 06:15:00,
2013-09-19 23:18:00,57.9,53.1,29.85,ESE,112,3.6,5.6,84,0.00,,,0.00,0.00,VWS V14.01,2013-09-20 06:18:00,
2013-09-19 23:23:00,57.9,53.4,29.85,SE,135,0.0,5.6,85,0.00,,,0.00,0.00,VWS V14.01,2013-09-20 06:23:00,
2013-09-19 23:28:00,57.6,53.1,29.85,SE,135,0.0,5.6,85,0.00,,,0.00,0.00,VWS V14.01,2013-09-20 06:28:00,
2013-09-19 23:30:00,57.6,53.1,29.85,SE,135,0.0,5.6,85,0.00,,,0.00,0.00,VWS V14.01,2013-09-20 06:30:00,
2013-09-19 23:33:00,57.6,53.7,29.85,ESE,112,3.8,4.9,87,0.00,,,0.00,0.00,VWS V14.01,2013-09-20 06:33:00,
2013-09-19 23:38:00,57.4,56.0,29.85,South,180,5.8,6.7,95,0.00,,,0.00,0.00,VWS V14.01,2013-09-20 06:38:00,
2013-09-19 23:43:00,56.8,56.0,29.85,SSW,202,7.6,7.8,97,0.00,,,0.00,0.00,VWS V14.01,2013-09-20 06:43:00,
2013-09-19 23:45:00,56.8,56.3,29.85,SSE,158,7.4,8.5,98,0.00,,,0.00,0.00,VWS V14.01,2013-09-20 06:45:00,
2013-09-19 23:48:00,56.5,56.2,29.85,SSW,202,4.0,8.5,99,0.00,,,0.00,0.00,VWS V14.01,2013-09-20 06:48:00,
2013-09-19 23:53:00,56.3,56.0,29.85,South,180,6.5,8.5,99,0.00,,,0.00,0.00,VWS V14.01,2013-09-20 06:53:00,
2013-09-19 23:58:00,56.1,56.1,29.85,South,180,5.8,8.5,100,0.00,,,0.00,0.00,VWS V14.01,2013-09-20 06:58:00,